Aviation Digital Data Service (ADDS)

Output produced by METARs form (0108 UTC 20 April 2019)
found at http://www.aviationweather.gov/metar/data/
 
METAR text: USSS 200030Z VRB01MPS CAVOK M04/M06 Q1019 R26R/120050 NOSIG RMK QFE744/0992
Conditions at: USSS (EKATERINBURG , RU) observed 0030 UTC 20 April 2019
Temperature: -4.0°C (25°F)
Dewpoint: -6.0°C (21°F) [RH = 86%]
Pressure (altimeter): 30.09 inches Hg (1019.0 mb)
Winds: variable direction winds at 2 MPH (2 knots; 1.0 m/s)
Visibility: 6 or more miles (10+ km)
Ceiling: ceiling and visibility are OK
Clouds: unknown
Weather: no significant weather observed at this time

METAR text: USSS 200000Z VRB01MPS 9999 FEW048 M04/M07 Q1019 R26R/120050 NOSIG RMK QFE744/0992
Conditions at: USSS (EKATERINBURG , RU) observed 0000 UTC 20 April 2019
Temperature: -4.0°C (25°F)
Dewpoint: -7.0°C (19°F) [RH = 80%]
Pressure (altimeter): 30.09 inches Hg (1019.0 mb)
Winds: variable direction winds at 2 MPH (2 knots; 1.0 m/s)
Visibility: 6 or more miles (10+ km)
Ceiling: at least 12,000 feet AGL
Clouds: few clouds at 4800 feet AGL
Weather: no significant weather observed at this time

METAR text: USSS 192330Z 26002MPS CAVOK M04/M07 Q1019 R26R/120050 NOSIG RMK QFE744/0992
Conditions at: USSS (EKATERINBURG , RU) observed 2330 UTC 19 April 2019
Temperature: -4.0°C (25°F)
Dewpoint: -7.0°C (19°F) [RH = 80%]
Pressure (altimeter): 30.09 inches Hg (1019.0 mb)
Winds: from the W (260 degrees) at 5 MPH (4 knots; 2.1 m/s)
Visibility: 6 or more miles (10+ km)
Ceiling: ceiling and visibility are OK
Clouds: unknown
Weather: no significant weather observed at this time

METAR text: USSS 192300Z 27001MPS CAVOK M04/M07 Q1019 R26R/120050 NOSIG RMK QFE744/0992
Conditions at: USSS (EKATERINBURG , RU) observed 2300 UTC 19 April 2019
Temperature: -4.0°C (25°F)
Dewpoint: -7.0°C (19°F) [RH = 80%]
Pressure (altimeter): 30.09 inches Hg (1019.0 mb)
Winds: from the W (270 degrees) at 2 MPH (2 knots; 1.0 m/s)
Visibility: 6 or more miles (10+ km)
Ceiling: ceiling and visibility are OK
Clouds: unknown
Weather: no significant weather observed at this time

METAR text: USSS 192230Z 00000MPS CAVOK M05/M07 Q1019 R26R/120050 NOSIG RMK QFE744/0992
Conditions at: USSS (EKATERINBURG , RU) observed 2230 UTC 19 April 2019
Temperature: -5.0°C (23°F)
Dewpoint: -7.0°C (19°F) [RH = 86%]
Pressure (altimeter): 30.09 inches Hg (1019.0 mb)
Winds: calm
Visibility: 6 or more miles (10+ km)
Ceiling: ceiling and visibility are OK
Clouds: unknown
Weather: no significant weather observed at this time

METAR text: USSS 192200Z 28002MPS CAVOK M03/M06 Q1019 R26R/120050 NOSIG RMK QFE744/0992
Conditions at: USSS (EKATERINBURG , RU) observed 2200 UTC 19 April 2019
Temperature: -3.0°C (27°F)
Dewpoint: -6.0°C (21°F) [RH = 80%]
Pressure (altimeter): 30.09 inches Hg (1019.0 mb)
Winds: from the W (280 degrees) at 5 MPH (4 knots; 2.1 m/s)
Visibility: 6 or more miles (10+ km)
Ceiling: ceiling and visibility are OK
Clouds: unknown
Weather: no significant weather observed at this time

METAR text: USSS 192130Z 24002MPS CAVOK M03/M07 Q1019 R26R/120050 NOSIG RMK QFE744/0992
Conditions at: USSS (EKATERINBURG , RU) observed 2130 UTC 19 April 2019
Temperature: -3.0°C (27°F)
Dewpoint: -7.0°C (19°F) [RH = 74%]
Pressure (altimeter): 30.09 inches Hg (1019.0 mb)
Winds: from the WSW (240 degrees) at 5 MPH (4 knots; 2.1 m/s)
Visibility: 6 or more miles (10+ km)
Ceiling: ceiling and visibility are OK
Clouds: unknown
Weather: no significant weather observed at this time

METAR text: USSS 192100Z 25001MPS CAVOK M04/M07 Q1020 R08L/120050 NOSIG RMK QFE745/0993
Conditions at: USSS (EKATERINBURG , RU) observed 2100 UTC 19 April 2019
Temperature: -4.0°C (25°F)
Dewpoint: -7.0°C (19°F) [RH = 80%]
Pressure (altimeter): 30.12 inches Hg (1020.0 mb)
Winds: from the WSW (250 degrees) at 2 MPH (2 knots; 1.0 m/s)
Visibility: 6 or more miles (10+ km)
Ceiling: ceiling and visibility are OK
Clouds: unknown
Weather: no significant weather observed at this time

METAR text: USSS 192030Z 25001MPS CAVOK M03/M07 Q1020 R08L/120050 NOSIG RMK QFE745/0993
Conditions at: USSS (EKATERINBURG , RU) observed 2030 UTC 19 April 2019
Temperature: -3.0°C (27°F)
Dewpoint: -7.0°C (19°F) [RH = 74%]
Pressure (altimeter): 30.12 inches Hg (1020.0 mb)
Winds: from the WSW (250 degrees) at 2 MPH (2 knots; 1.0 m/s)
Visibility: 6 or more miles (10+ km)
Ceiling: ceiling and visibility are OK
Clouds: unknown
Weather: no significant weather observed at this time

METAR text: USSS 192000Z 22001MPS CAVOK M03/M06 Q1020 R26R/120050 NOSIG RMK QFE744/0992
Conditions at: USSS (EKATERINBURG , RU) observed 2000 UTC 19 April 2019
Temperature: -3.0°C (27°F)
Dewpoint: -6.0°C (21°F) [RH = 80%]
Pressure (altimeter): 30.12 inches Hg (1020.0 mb)
Winds: from the SW (220 degrees) at 2 MPH (2 knots; 1.0 m/s)
Visibility: 6 or more miles (10+ km)
Ceiling: ceiling and visibility are OK
Clouds: unknown
Weather: no significant weather observed at this time

METAR text: USSS 191930Z 00000MPS CAVOK M02/M06 Q1020 R26R/120050 NOSIG RMK QFE744/0992
Conditions at: USSS (EKATERINBURG , RU) observed 1930 UTC 19 April 2019
Temperature: -2.0°C (28°F)
Dewpoint: -6.0°C (21°F) [RH = 74%]
Pressure (altimeter): 30.12 inches Hg (1020.0 mb)
Winds: calm
Visibility: 6 or more miles (10+ km)
Ceiling: ceiling and visibility are OK
Clouds: unknown
Weather: no significant weather observed at this time

METAR text: USSS 191900Z 35002MPS 320V030 CAVOK 02/M07 Q1020 R26R/120050 NOSIG RMK QFE744/0992
Conditions at: USSS (EKATERINBURG , RU) observed 1900 UTC 19 April 2019
Temperature: 2.0°C (36°F)
Dewpoint: -7.0°C (19°F) [RH = 51%]
Pressure (altimeter): 30.12 inches Hg (1020.0 mb)
Winds: from the N (350 degrees) at 5 MPH (4 knots; 2.1 m/s)
Visibility: 6 or more miles (10+ km)
Ceiling: ceiling and visibility are OK
Clouds: unknown
Weather: no significant weather observed at this time

METAR text: USSS 191830Z 35003MPS CAVOK 02/M07 Q1019 R26R/120050 NOSIG RMK QFE744/0992
Conditions at: USSS (EKATERINBURG , RU) observed 1830 UTC 19 April 2019
Temperature: 2.0°C (36°F)
Dewpoint: -7.0°C (19°F) [RH = 51%]
Pressure (altimeter): 30.09 inches Hg (1019.0 mb)
Winds: from the N (350 degrees) at 7 MPH (6 knots; 3.1 m/s)
Visibility: 6 or more miles (10+ km)
Ceiling: ceiling and visibility are OK
Clouds: unknown
Weather: no significant weather observed at this time

METAR text: USSS 191800Z 36003MPS CAVOK 03/M07 Q1019 R26R/120050 NOSIG RMK QFE744/0992
Conditions at: USSS (EKATERINBURG , RU) observed 1800 UTC 19 April 2019
Temperature: 3.0°C (37°F)
Dewpoint: -7.0°C (19°F) [RH = 48%]
Pressure (altimeter): 30.09 inches Hg (1019.0 mb)
Winds: from the N (360 degrees) at 7 MPH (6 knots; 3.1 m/s)
Visibility: 6 or more miles (10+ km)
Ceiling: ceiling and visibility are OK
Clouds: unknown
Weather: no significant weather observed at this time

METAR text: USSS 191730Z 33003MPS CAVOK 03/M07 Q1019 R26R/120050 NOSIG RMK QFE744/0992
Conditions at: USSS (EKATERINBURG , RU) observed 1730 UTC 19 April 2019
Temperature: 3.0°C (37°F)
Dewpoint: -7.0°C (19°F) [RH = 48%]
Pressure (altimeter): 30.09 inches Hg (1019.0 mb)
Winds: from the NNW (330 degrees) at 7 MPH (6 knots; 3.1 m/s)
Visibility: 6 or more miles (10+ km)
Ceiling: ceiling and visibility are OK
Clouds: unknown
Weather: no significant weather observed at this time

METAR text: USSS 191700Z 34003MPS CAVOK 04/M07 Q1019 R26R/120050 NOSIG RMK QFE743/0991
Conditions at: USSS (EKATERINBURG , RU) observed 1700 UTC 19 April 2019
Temperature: 4.0°C (39°F)
Dewpoint: -7.0°C (19°F) [RH = 44%]
Pressure (altimeter): 30.09 inches Hg (1019.0 mb)
Winds: from the NNW (340 degrees) at 7 MPH (6 knots; 3.1 m/s)
Visibility: 6 or more miles (10+ km)
Ceiling: ceiling and visibility are OK
Clouds: unknown
Weather: no significant weather observed at this time

METAR text: USSS 191630Z 33003MPS CAVOK 04/M07 Q1019 R26R/120050 NOSIG RMK QFE743/0991
Conditions at: USSS (EKATERINBURG , RU) observed 1630 UTC 19 April 2019
Temperature: 4.0°C (39°F)
Dewpoint: -7.0°C (19°F) [RH = 44%]
Pressure (altimeter): 30.09 inches Hg (1019.0 mb)
Winds: from the NNW (330 degrees) at 7 MPH (6 knots; 3.1 m/s)
Visibility: 6 or more miles (10+ km)
Ceiling: ceiling and visibility are OK
Clouds: unknown
Weather: no significant weather observed at this time

METAR text: USSS 191600Z 32002MPS CAVOK 05/M07 Q1019 R26R/120050 NOSIG RMK QFE743/0991
Conditions at: USSS (EKATERINBURG , RU) observed 1600 UTC 19 April 2019
Temperature: 5.0°C (41°F)
Dewpoint: -7.0°C (19°F) [RH = 41%]
Pressure (altimeter): 30.09 inches Hg (1019.0 mb)
Winds: from the NW (320 degrees) at 5 MPH (4 knots; 2.1 m/s)
Visibility: 6 or more miles (10+ km)
Ceiling: ceiling and visibility are OK
Clouds: unknown
Weather: no significant weather observed at this time

METAR text: USSS 191530Z 33002MPS CAVOK 06/M07 Q1019 R26R/120050 NOSIG RMK QFE743/0991
Conditions at: USSS (EKATERINBURG , RU) observed 1530 UTC 19 April 2019
Temperature: 6.0°C (43°F)
Dewpoint: -7.0°C (19°F) [RH = 39%]
Pressure (altimeter): 30.09 inches Hg (1019.0 mb)
Winds: from the NNW (330 degrees) at 5 MPH (4 knots; 2.1 m/s)
Visibility: 6 or more miles (10+ km)
Ceiling: ceiling and visibility are OK
Clouds: unknown
Weather: no significant weather observed at this time

METAR text: USSS 191500Z 35002MPS 310V020 CAVOK 07/M07 Q1019 R26R/120050 NOSIG RMK QFE743/0991
Conditions at: USSS (EKATERINBURG , RU) observed 1500 UTC 19 April 2019
Temperature: 7.0°C (45°F)
Dewpoint: -7.0°C (19°F) [RH = 36%]
Pressure (altimeter): 30.09 inches Hg (1019.0 mb)
Winds: from the N (350 degrees) at 5 MPH (4 knots; 2.1 m/s)
Visibility: 6 or more miles (10+ km)
Ceiling: ceiling and visibility are OK
Clouds: unknown
Weather: no significant weather observed at this time

METAR text: USSS 191430Z 35004MPS CAVOK 07/M07 Q1019 R26R/120050 NOSIG RMK QFE743/0991
Conditions at: USSS (EKATERINBURG , RU) observed 1430 UTC 19 April 2019
Temperature: 7.0°C (45°F)
Dewpoint: -7.0°C (19°F) [RH = 36%]
Pressure (altimeter): 30.09 inches Hg (1019.0 mb)
Winds: from the N (350 degrees) at 9 MPH (8 knots; 4.1 m/s)
Visibility: 6 or more miles (10+ km)
Ceiling: ceiling and visibility are OK
Clouds: unknown
Weather: no significant weather observed at this time

METAR text: USSS 191400Z 34005MPS 310V010 CAVOK 08/M07 Q1019 R26R/120050 NOSIG RMK QFE743/0991
Conditions at: USSS (EKATERINBURG , RU) observed 1400 UTC 19 April 2019
Temperature: 8.0°C (46°F)
Dewpoint: -7.0°C (19°F) [RH = 34%]
Pressure (altimeter): 30.09 inches Hg (1019.0 mb)
Winds: from the NNW (340 degrees) at 12 MPH (10 knots; 5.1 m/s)
Visibility: 6 or more miles (10+ km)
Ceiling: ceiling and visibility are OK
Clouds: unknown
Weather: no significant weather observed at this time

METAR text: USSS 191330Z 32006MPS 290V360 CAVOK 08/M07 Q1019 R26R/120050 NOSIG RMK QFE743/0991
Conditions at: USSS (EKATERINBURG , RU) observed 1330 UTC 19 April 2019
Temperature: 8.0°C (46°F)
Dewpoint: -7.0°C (19°F) [RH = 34%]
Pressure (altimeter): 30.09 inches Hg (1019.0 mb)
Winds: from the NW (320 degrees) at 14 MPH (12 knots; 6.2 m/s)
Visibility: 6 or more miles (10+ km)
Ceiling: ceiling and visibility are OK
Clouds: unknown
Weather: no significant weather observed at this time

METAR text: USSS 191300Z 33003MPS 300V020 CAVOK 08/M07 Q1019 R26R/120050 NOSIG RMK QFE743/0991
Conditions at: USSS (EKATERINBURG , RU) observed 1300 UTC 19 April 2019
Temperature: 8.0°C (46°F)
Dewpoint: -7.0°C (19°F) [RH = 34%]
Pressure (altimeter): 30.09 inches Hg (1019.0 mb)
Winds: from the NNW (330 degrees) at 7 MPH (6 knots; 3.1 m/s)
Visibility: 6 or more miles (10+ km)
Ceiling: ceiling and visibility are OK
Clouds: unknown
Weather: no significant weather observed at this time

METAR text: USSS 191230Z 33005MPS CAVOK 08/M07 Q1019 R26R/120050 NOSIG RMK QFE743/0991
Conditions at: USSS (EKATERINBURG , RU) observed 1230 UTC 19 April 2019
Temperature: 8.0°C (46°F)
Dewpoint: -7.0°C (19°F) [RH = 34%]
Pressure (altimeter): 30.09 inches Hg (1019.0 mb)
Winds: from the NNW (330 degrees) at 12 MPH (10 knots; 5.1 m/s)
Visibility: 6 or more miles (10+ km)
Ceiling: ceiling and visibility are OK
Clouds: unknown
Weather: no significant weather observed at this time

METAR text: USSS 191200Z 35005MPS 310V020 CAVOK 09/M07 Q1019 R26R/120050 NOSIG RMK QFE743/0991
Conditions at: USSS (EKATERINBURG , RU) observed 1200 UTC 19 April 2019
Temperature: 9.0°C (48°F)
Dewpoint: -7.0°C (19°F) [RH = 32%]
Pressure (altimeter): 30.09 inches Hg (1019.0 mb)
Winds: from the N (350 degrees) at 12 MPH (10 knots; 5.1 m/s)
Visibility: 6 or more miles (10+ km)
Ceiling: ceiling and visibility are OK
Clouds: unknown
Weather: no significant weather observed at this time

METAR text: USSS 191130Z 33004MPS 290V030 CAVOK 09/M08 Q1019 R26R/120050 NOSIG RMK QFE744/0992
Conditions at: USSS (EKATERINBURG , RU) observed 1130 UTC 19 April 2019
Temperature: 9.0°C (48°F)
Dewpoint: -8.0°C (18°F) [RH = 29%]
Pressure (altimeter): 30.09 inches Hg (1019.0 mb)
Winds: from the NNW (330 degrees) at 9 MPH (8 knots; 4.1 m/s)
Visibility: 6 or more miles (10+ km)
Ceiling: ceiling and visibility are OK
Clouds: unknown
Weather: no significant weather observed at this time

METAR text: USSS 191100Z 34005MPS 270V010 CAVOK 08/M07 Q1019 R26R/120050 NOSIG RMK QFE744/0992
Conditions at: USSS (EKATERINBURG , RU) observed 1100 UTC 19 April 2019
Temperature: 8.0°C (46°F)
Dewpoint: -7.0°C (19°F) [RH = 34%]
Pressure (altimeter): 30.09 inches Hg (1019.0 mb)
Winds: from the NNW (340 degrees) at 12 MPH (10 knots; 5.1 m/s)
Visibility: 6 or more miles (10+ km)
Ceiling: ceiling and visibility are OK
Clouds: unknown
Weather: no significant weather observed at this time

METAR text: USSS 191030Z 32004MPS 260V030 CAVOK 08/M07 Q1019 R26R/120050 NOSIG RMK QFE744/0992
Conditions at: USSS (EKATERINBURG , RU) observed 1030 UTC 19 April 2019
Temperature: 8.0°C (46°F)
Dewpoint: -7.0°C (19°F) [RH = 34%]
Pressure (altimeter): 30.09 inches Hg (1019.0 mb)
Winds: from the NW (320 degrees) at 9 MPH (8 knots; 4.1 m/s)
Visibility: 6 or more miles (10+ km)
Ceiling: ceiling and visibility are OK
Clouds: unknown
Weather: no significant weather observed at this time

METAR text: USSS 191000Z 31005MPS CAVOK 08/M10 Q1020 R26R/120050 NOSIG RMK QFE744/0992
Conditions at: USSS (EKATERINBURG , RU) observed 1000 UTC 19 April 2019
Temperature: 8.0°C (46°F)
Dewpoint: -10.0°C (14°F) [RH = 27%]
Pressure (altimeter): 30.12 inches Hg (1020.0 mb)
Winds: from the NW (310 degrees) at 12 MPH (10 knots; 5.1 m/s)
Visibility: 6 or more miles (10+ km)
Ceiling: ceiling and visibility are OK
Clouds: unknown
Weather: no significant weather observed at this time

METAR text: USSS 190930Z 31006MPS 270V360 CAVOK 07/M10 Q1020 R26R/120050 NOSIG RMK QFE744/0992
Conditions at: USSS (EKATERINBURG , RU) observed 0930 UTC 19 April 2019
Temperature: 7.0°C (45°F)
Dewpoint: -10.0°C (14°F) [RH = 29%]
Pressure (altimeter): 30.12 inches Hg (1020.0 mb)
Winds: from the NW (310 degrees) at 14 MPH (12 knots; 6.2 m/s)
Visibility: 6 or more miles (10+ km)
Ceiling: ceiling and visibility are OK
Clouds: unknown
Weather: no significant weather observed at this time

METAR text: USSS 190900Z 30006MPS 280V340 CAVOK 07/M10 Q1020 R26R/120050 NOSIG RMK QFE744/0993
Conditions at: USSS (EKATERINBURG , RU) observed 0900 UTC 19 April 2019
Temperature: 7.0°C (45°F)
Dewpoint: -10.0°C (14°F) [RH = 29%]
Pressure (altimeter): 30.12 inches Hg (1020.0 mb)
Winds: from the WNW (300 degrees) at 14 MPH (12 knots; 6.2 m/s)
Visibility: 6 or more miles (10+ km)
Ceiling: ceiling and visibility are OK
Clouds: unknown
Weather: no significant weather observed at this time

METAR text: USSS 190830Z 31005MPS 280V010 CAVOK 06/M11 Q1021 R26R/120050 NOSIG RMK QFE745/0993
Conditions at: USSS (EKATERINBURG , RU) observed 0830 UTC 19 April 2019
Temperature: 6.0°C (43°F)
Dewpoint: -11.0°C (12°F) [RH = 28%]
Pressure (altimeter): 30.15 inches Hg (1021.0 mb)
Winds: from the NW (310 degrees) at 12 MPH (10 knots; 5.1 m/s)
Visibility: 6 or more miles (10+ km)
Ceiling: ceiling and visibility are OK
Clouds: unknown
Weather: no significant weather observed at this time

METAR text: USSS 190800Z 31005G10MPS 290V360 CAVOK 06/M10 Q1021 R26R/120050 NOSIG RMK QFE745/0993
Conditions at: USSS (EKATERINBURG , RU) observed 0800 UTC 19 April 2019
Temperature: 6.0°C (43°F)
Dewpoint: -10.0°C (14°F) [RH = 31%]
Pressure (altimeter): 30.15 inches Hg (1021.0 mb)
Winds: from the NW (310 degrees) at 12 MPH (10 knots; 5.1 m/s)
gusting to 22 MPH (19 knots; 9.8 m/s)
Visibility: 6 or more miles (10+ km)
Ceiling: ceiling and visibility are OK
Clouds: unknown
Weather: no significant weather observed at this time

METAR text: USSS 190730Z 29005MPS 250V360 CAVOK 06/M10 Q1021 R26R/120050 NOSIG RMK QFE745/0994
Conditions at: USSS (EKATERINBURG , RU) observed 0730 UTC 19 April 2019
Temperature: 6.0°C (43°F)
Dewpoint: -10.0°C (14°F) [RH = 31%]
Pressure (altimeter): 30.15 inches Hg (1021.0 mb)
Winds: from the WNW (290 degrees) at 12 MPH (10 knots; 5.1 m/s)
Visibility: 6 or more miles (10+ km)
Ceiling: ceiling and visibility are OK
Clouds: unknown
Weather: no significant weather observed at this time

METAR text: USSS 190700Z 34004MPS 300V030 CAVOK 06/M11 Q1022 R26R/120050 NOSIG RMK QFE745/0994
Conditions at: USSS (EKATERINBURG , RU) observed 0700 UTC 19 April 2019
Temperature: 6.0°C (43°F)
Dewpoint: -11.0°C (12°F) [RH = 28%]
Pressure (altimeter): 30.18 inches Hg (1022.0 mb)
Winds: from the NNW (340 degrees) at 9 MPH (8 knots; 4.1 m/s)
Visibility: 6 or more miles (10+ km)
Ceiling: ceiling and visibility are OK
Clouds: unknown
Weather: no significant weather observed at this time

METAR text: USSS 190630Z 33006MPS 290V350 CAVOK 05/M11 Q1022 R26R/120050 NOSIG RMK QFE746/0994
Conditions at: USSS (EKATERINBURG , RU) observed 0630 UTC 19 April 2019
Temperature: 5.0°C (41°F)
Dewpoint: -11.0°C (12°F) [RH = 30%]
Pressure (altimeter): 30.18 inches Hg (1022.0 mb)
Winds: from the NNW (330 degrees) at 14 MPH (12 knots; 6.2 m/s)
Visibility: 6 or more miles (10+ km)
Ceiling: ceiling and visibility are OK
Clouds: unknown
Weather: no significant weather observed at this time

METAR text: USSS 190600Z 28004MPS 250V310 CAVOK 05/M14 Q1022 R26R/120050 NOSIG RMK QFE746/0995
Conditions at: USSS (EKATERINBURG , RU) observed 0600 UTC 19 April 2019
Temperature: 5.0°C (41°F)
Dewpoint: -14.0°C ( 7°F) [RH = 24%]
Pressure (altimeter): 30.18 inches Hg (1022.0 mb)
Winds: from the W (280 degrees) at 9 MPH (8 knots; 4.1 m/s)
Visibility: 6 or more miles (10+ km)
Ceiling: ceiling and visibility are OK
Clouds: unknown
Weather: no significant weather observed at this time

METAR text: USSS 190530Z 31005MPS 280V340 CAVOK 05/M14 Q1023 R26R/120050 NOSIG RMK QFE746/0995
Conditions at: USSS (EKATERINBURG , RU) observed 0530 UTC 19 April 2019
Temperature: 5.0°C (41°F)
Dewpoint: -14.0°C ( 7°F) [RH = 24%]
Pressure (altimeter): 30.21 inches Hg (1023.0 mb)
Winds: from the NW (310 degrees) at 12 MPH (10 knots; 5.1 m/s)
Visibility: 6 or more miles (10+ km)
Ceiling: ceiling and visibility are OK
Clouds: unknown
Weather: no significant weather observed at this time

METAR text: USSS 190500Z 28003MPS 240V320 CAVOK 04/M13 Q1023 R26R/120050 NOSIG RMK QFE746/0995
Conditions at: USSS (EKATERINBURG , RU) observed 0500 UTC 19 April 2019
Temperature: 4.0°C (39°F)
Dewpoint: -13.0°C ( 9°F) [RH = 28%]
Pressure (altimeter): 30.21 inches Hg (1023.0 mb)
Winds: from the W (280 degrees) at 7 MPH (6 knots; 3.1 m/s)
Visibility: 6 or more miles (10+ km)
Ceiling: ceiling and visibility are OK
Clouds: unknown
Weather: no significant weather observed at this time

METAR text: USSS 190430Z 28002MPS 240V350 CAVOK 03/M12 Q1023 R26R/120050 NOSIG RMK QFE746/0995
Conditions at: USSS (EKATERINBURG , RU) observed 0430 UTC 19 April 2019
Temperature: 3.0°C (37°F)
Dewpoint: -12.0°C (10°F) [RH = 32%]
Pressure (altimeter): 30.21 inches Hg (1023.0 mb)
Winds: from the W (280 degrees) at 5 MPH (4 knots; 2.1 m/s)
Visibility: 6 or more miles (10+ km)
Ceiling: ceiling and visibility are OK
Clouds: unknown
Weather: no significant weather observed at this time

METAR text: USSS 190400Z 28002MPS 250V310 CAVOK 01/M12 Q1023 R26R/120050 NOSIG RMK QFE746/0995
Conditions at: USSS (EKATERINBURG , RU) observed 0400 UTC 19 April 2019
Temperature: 1.0°C (34°F)
Dewpoint: -12.0°C (10°F) [RH = 37%]
Pressure (altimeter): 30.21 inches Hg (1023.0 mb)
Winds: from the W (280 degrees) at 5 MPH (4 knots; 2.1 m/s)
Visibility: 6 or more miles (10+ km)
Ceiling: ceiling and visibility are OK
Clouds: unknown
Weather: no significant weather observed at this time

METAR text: USSS 190330Z 29002MPS CAVOK 00/M12 Q1024 R26R/120050 NOSIG RMK QFE747/0996
Conditions at: USSS (EKATERINBURG , RU) observed 0330 UTC 19 April 2019
Temperature: 0.0°C (32°F)
Dewpoint: -12.0°C (10°F) [RH = 40%]
Pressure (altimeter): 30.24 inches Hg (1024.0 mb)
Winds: from the WNW (290 degrees) at 5 MPH (4 knots; 2.1 m/s)
Visibility: 6 or more miles (10+ km)
Ceiling: ceiling and visibility are OK
Clouds: unknown
Weather: no significant weather observed at this time

METAR text: USSS 190300Z VRB01MPS CAVOK M01/M09 Q1024 R26R/120050 NOSIG RMK QFE747/0996
Conditions at: USSS (EKATERINBURG , RU) observed 0300 UTC 19 April 2019
Temperature: -1.0°C (30°F)
Dewpoint: -9.0°C (16°F) [RH = 55%]
Pressure (altimeter): 30.24 inches Hg (1024.0 mb)
Winds: variable direction winds at 2 MPH (2 knots; 1.0 m/s)
Visibility: 6 or more miles (10+ km)
Ceiling: ceiling and visibility are OK
Clouds: unknown
Weather: no significant weather observed at this time

METAR text: USSS 190230Z 00000MPS CAVOK M02/M09 Q1024 R26R/120050 NOSIG RMK QFE747/0996
Conditions at: USSS (EKATERINBURG , RU) observed 0230 UTC 19 April 2019
Temperature: -2.0°C (28°F)
Dewpoint: -9.0°C (16°F) [RH = 59%]
Pressure (altimeter): 30.24 inches Hg (1024.0 mb)
Winds: calm
Visibility: 6 or more miles (10+ km)
Ceiling: ceiling and visibility are OK
Clouds: unknown
Weather: no significant weather observed at this time

METAR text: USSS 190200Z 00000MPS CAVOK M05/M08 Q1024 R26R/120050 NOSIG RMK QFE747/0996
Conditions at: USSS (EKATERINBURG , RU) observed 0200 UTC 19 April 2019
Temperature: -5.0°C (23°F)
Dewpoint: -8.0°C (18°F) [RH = 79%]
Pressure (altimeter): 30.24 inches Hg (1024.0 mb)
Winds: calm
Visibility: 6 or more miles (10+ km)
Ceiling: ceiling and visibility are OK
Clouds: unknown
Weather: no significant weather observed at this time

METAR text: USSS 190130Z 00000MPS CAVOK M07/M10 Q1024 R26R/120050 NOSIG RMK QFE747/0996
Conditions at: USSS (EKATERINBURG , RU) observed 0130 UTC 19 April 2019
Temperature: -7.0°C (19°F)
Dewpoint: -10.0°C (14°F) [RH = 79%]
Pressure (altimeter): 30.24 inches Hg (1024.0 mb)
Winds: calm
Visibility: 6 or more miles (10+ km)
Ceiling: ceiling and visibility are OK
Clouds: unknown
Weather: no significant weather observed at this time

METAR text: USSS 190100Z 00000MPS CAVOK M09/M11 Q1024 R26R/120050 NOSIG RMK QFE747/0997
Conditions at: USSS (EKATERINBURG , RU) observed 0100 UTC 19 April 2019
Temperature: -9.0°C (16°F)
Dewpoint: -11.0°C (12°F) [RH = 85%]
Pressure (altimeter): 30.24 inches Hg (1024.0 mb)
Winds: calm
Visibility: 6 or more miles (10+ km)
Ceiling: ceiling and visibility are OK
Clouds: unknown
Weather: no significant weather observed at this time

METAR text: USSS 190030Z 00000MPS CAVOK M08/M10 Q1024 R26R/120050 NOSIG RMK QFE747/0997
Conditions at: USSS (EKATERINBURG , RU) observed 0030 UTC 19 April 2019
Temperature: -8.0°C (18°F)
Dewpoint: -10.0°C (14°F) [RH = 85%]
Pressure (altimeter): 30.24 inches Hg (1024.0 mb)
Winds: calm
Visibility: 6 or more miles (10+ km)
Ceiling: ceiling and visibility are OK
Clouds: unknown
Weather: no significant weather observed at this time

METAR text: USSS 190000Z 00000MPS CAVOK M08/M10 Q1024 R26R/120050 NOSIG RMK QFE747/0997
Conditions at: USSS (EKATERINBURG , RU) observed 0000 UTC 19 April 2019
Temperature: -8.0°C (18°F)
Dewpoint: -10.0°C (14°F) [RH = 85%]
Pressure (altimeter): 30.24 inches Hg (1024.0 mb)
Winds: calm
Visibility: 6 or more miles (10+ km)
Ceiling: ceiling and visibility are OK
Clouds: unknown
Weather: no significant weather observed at this time

METAR text: USSS 182330Z 00000MPS CAVOK M08/M11 Q1025 R26R/120050 NOSIG RMK QFE747/0997
Conditions at: USSS (EKATERINBURG , RU) observed 2330 UTC 18 April 2019
Temperature: -8.0°C (18°F)
Dewpoint: -11.0°C (12°F) [RH = 79%]
Pressure (altimeter): 30.27 inches Hg (1025.0 mb)
Winds: calm
Visibility: 6 or more miles (10+ km)
Ceiling: ceiling and visibility are OK
Clouds: unknown
Weather: no significant weather observed at this time

METAR text: USSS 182300Z 00000MPS CAVOK M08/M10 Q1025 R26R/120050 NOSIG RMK QFE748/0997
Conditions at: USSS (EKATERINBURG , RU) observed 2300 UTC 18 April 2019
Temperature: -8.0°C (18°F)
Dewpoint: -10.0°C (14°F) [RH = 85%]
Pressure (altimeter): 30.27 inches Hg (1025.0 mb)
Winds: calm
Visibility: 6 or more miles (10+ km)
Ceiling: ceiling and visibility are OK
Clouds: unknown
Weather: no significant weather observed at this time

METAR text: USSS 182230Z 00000MPS CAVOK M08/M11 Q1025 R26R/120050 NOSIG RMK QFE748/0997
Conditions at: USSS (EKATERINBURG , RU) observed 2230 UTC 18 April 2019
Temperature: -8.0°C (18°F)
Dewpoint: -11.0°C (12°F) [RH = 79%]
Pressure (altimeter): 30.27 inches Hg (1025.0 mb)
Winds: calm
Visibility: 6 or more miles (10+ km)
Ceiling: ceiling and visibility are OK
Clouds: unknown
Weather: no significant weather observed at this time

METAR text: USSS 182200Z 00000MPS CAVOK M08/M10 Q1025 R26R/120050 NOSIG RMK QFE748/0997
Conditions at: USSS (EKATERINBURG , RU) observed 2200 UTC 18 April 2019
Temperature: -8.0°C (18°F)
Dewpoint: -10.0°C (14°F) [RH = 85%]
Pressure (altimeter): 30.27 inches Hg (1025.0 mb)
Winds: calm
Visibility: 6 or more miles (10+ km)
Ceiling: ceiling and visibility are OK
Clouds: unknown
Weather: no significant weather observed at this time

METAR text: USSS 182130Z 00000MPS CAVOK M07/M10 Q1025 R26R/120050 NOSIG RMK QFE748/0997
Conditions at: USSS (EKATERINBURG , RU) observed 2130 UTC 18 April 2019
Temperature: -7.0°C (19°F)
Dewpoint: -10.0°C (14°F) [RH = 79%]
Pressure (altimeter): 30.27 inches Hg (1025.0 mb)
Winds: calm
Visibility: 6 or more miles (10+ km)
Ceiling: ceiling and visibility are OK
Clouds: unknown
Weather: no significant weather observed at this time

METAR text: USSS 182100Z 00000MPS CAVOK M08/M09 Q1025 R26R/120050 NOSIG RMK QFE748/0997
Conditions at: USSS (EKATERINBURG , RU) observed 2100 UTC 18 April 2019
Temperature: -8.0°C (18°F)
Dewpoint: -9.0°C (16°F) [RH = 92%]
Pressure (altimeter): 30.27 inches Hg (1025.0 mb)
Winds: calm
Visibility: 6 or more miles (10+ km)
Ceiling: ceiling and visibility are OK
Clouds: unknown
Weather: no significant weather observed at this time

METAR text: USSS 182030Z 00000MPS CAVOK M07/M09 Q1025 R26R/120050 NOSIG RMK QFE748/0998
Conditions at: USSS (EKATERINBURG , RU) observed 2030 UTC 18 April 2019
Temperature: -7.0°C (19°F)
Dewpoint: -9.0°C (16°F) [RH = 86%]
Pressure (altimeter): 30.27 inches Hg (1025.0 mb)
Winds: calm
Visibility: 6 or more miles (10+ km)
Ceiling: ceiling and visibility are OK
Clouds: unknown
Weather: no significant weather observed at this time

METAR text: USSS 182000Z 00000MPS CAVOK M07/M10 Q1026 R26R/120050 NOSIG RMK QFE748/0998
Conditions at: USSS (EKATERINBURG , RU) observed 2000 UTC 18 April 2019
Temperature: -7.0°C (19°F)
Dewpoint: -10.0°C (14°F) [RH = 79%]
Pressure (altimeter): 30.30 inches Hg (1026.0 mb)
Winds: calm
Visibility: 6 or more miles (10+ km)
Ceiling: ceiling and visibility are OK
Clouds: unknown
Weather: no significant weather observed at this time

METAR text: USSS 181930Z 00000MPS CAVOK M06/M10 Q1026 R26R/120050 NOSIG RMK QFE748/0998
Conditions at: USSS (EKATERINBURG , RU) observed 1930 UTC 18 April 2019
Temperature: -6.0°C (21°F)
Dewpoint: -10.0°C (14°F) [RH = 73%]
Pressure (altimeter): 30.30 inches Hg (1026.0 mb)
Winds: calm
Visibility: 6 or more miles (10+ km)
Ceiling: ceiling and visibility are OK
Clouds: unknown
Weather: no significant weather observed at this time

METAR text: USSS 181900Z 00000MPS CAVOK M06/M10 Q1026 R26R/120050 NOSIG RMK QFE748/0998
Conditions at: USSS (EKATERINBURG , RU) observed 1900 UTC 18 April 2019
Temperature: -6.0°C (21°F)
Dewpoint: -10.0°C (14°F) [RH = 73%]
Pressure (altimeter): 30.30 inches Hg (1026.0 mb)
Winds: calm
Visibility: 6 or more miles (10+ km)
Ceiling: ceiling and visibility are OK
Clouds: unknown
Weather: no significant weather observed at this time

METAR text: USSS 181830Z 24001MPS CAVOK M04/M12 Q1026 R26R/120050 NOSIG RMK QFE748/0998
Conditions at: USSS (EKATERINBURG , RU) observed 1830 UTC 18 April 2019
Temperature: -4.0°C (25°F)
Dewpoint: -12.0°C (10°F) [RH = 54%]
Pressure (altimeter): 30.30 inches Hg (1026.0 mb)
Winds: from the WSW (240 degrees) at 2 MPH (2 knots; 1.0 m/s)
Visibility: 6 or more miles (10+ km)
Ceiling: ceiling and visibility are OK
Clouds: unknown
Weather: no significant weather observed at this time

METAR text: USSS 181800Z 25001MPS CAVOK M02/M13 Q1026 R26R/120050 NOSIG RMK QFE748/0998
Conditions at: USSS (EKATERINBURG , RU) observed 1800 UTC 18 April 2019
Temperature: -2.0°C (28°F)
Dewpoint: -13.0°C ( 9°F) [RH = 43%]
Pressure (altimeter): 30.30 inches Hg (1026.0 mb)
Winds: from the WSW (250 degrees) at 2 MPH (2 knots; 1.0 m/s)
Visibility: 6 or more miles (10+ km)
Ceiling: ceiling and visibility are OK
Clouds: unknown
Weather: no significant weather observed at this time

METAR text: USSS 181730Z 24001MPS CAVOK M02/M13 Q1026 R26R/120050 NOSIG RMK QFE748/0998
Conditions at: USSS (EKATERINBURG , RU) observed 1730 UTC 18 April 2019
Temperature: -2.0°C (28°F)
Dewpoint: -13.0°C ( 9°F) [RH = 43%]
Pressure (altimeter): 30.30 inches Hg (1026.0 mb)
Winds: from the WSW (240 degrees) at 2 MPH (2 knots; 1.0 m/s)
Visibility: 6 or more miles (10+ km)
Ceiling: ceiling and visibility are OK
Clouds: unknown
Weather: no significant weather observed at this time

METAR text: USSS 181700Z 24002MPS CAVOK M02/M13 Q1026 R26R/120050 NOSIG RMK QFE748/0998
Conditions at: USSS (EKATERINBURG , RU) observed 1700 UTC 18 April 2019
Temperature: -2.0°C (28°F)
Dewpoint: -13.0°C ( 9°F) [RH = 43%]
Pressure (altimeter): 30.30 inches Hg (1026.0 mb)
Winds: from the WSW (240 degrees) at 5 MPH (4 knots; 2.1 m/s)
Visibility: 6 or more miles (10+ km)
Ceiling: ceiling and visibility are OK
Clouds: unknown
Weather: no significant weather observed at this time

METAR text: USSS 181630Z 27002MPS CAVOK M02/M13 Q1026 R26R/120050 NOSIG RMK QFE748/0998
Conditions at: USSS (EKATERINBURG , RU) observed 1630 UTC 18 April 2019
Temperature: -2.0°C (28°F)
Dewpoint: -13.0°C ( 9°F) [RH = 43%]
Pressure (altimeter): 30.30 inches Hg (1026.0 mb)
Winds: from the W (270 degrees) at 5 MPH (4 knots; 2.1 m/s)
Visibility: 6 or more miles (10+ km)
Ceiling: ceiling and visibility are OK
Clouds: unknown
Weather: no significant weather observed at this time

METAR text: USSS 181600Z 28002MPS 250V330 CAVOK 00/M14 Q1026 R26R/120050 NOSIG RMK QFE748/0998
Conditions at: USSS (EKATERINBURG , RU) observed 1600 UTC 18 April 2019
Temperature: 0.0°C (32°F)
Dewpoint: -14.0°C ( 7°F) [RH = 34%]
Pressure (altimeter): 30.30 inches Hg (1026.0 mb)
Winds: from the W (280 degrees) at 5 MPH (4 knots; 2.1 m/s)
Visibility: 6 or more miles (10+ km)
Ceiling: ceiling and visibility are OK
Clouds: unknown
Weather: no significant weather observed at this time

METAR text: USSS 181530Z 24004MPS CAVOK 00/M12 Q1025 R26R/120050 NOSIG RMK QFE748/0998
Conditions at: USSS (EKATERINBURG , RU) observed 1530 UTC 18 April 2019
Temperature: 0.0°C (32°F)
Dewpoint: -12.0°C (10°F) [RH = 40%]
Pressure (altimeter): 30.27 inches Hg (1025.0 mb)
Winds: from the WSW (240 degrees) at 9 MPH (8 knots; 4.1 m/s)
Visibility: 6 or more miles (10+ km)
Ceiling: ceiling and visibility are OK
Clouds: unknown
Weather: no significant weather observed at this time

METAR text: USSS 181500Z 25003MPS CAVOK 01/M13 Q1025 R26R/120050 NOSIG RMK QFE748/0997
Conditions at: USSS (EKATERINBURG , RU) observed 1500 UTC 18 April 2019
Temperature: 1.0°C (34°F)
Dewpoint: -13.0°C ( 9°F) [RH = 34%]
Pressure (altimeter): 30.27 inches Hg (1025.0 mb)
Winds: from the WSW (250 degrees) at 7 MPH (6 knots; 3.1 m/s)
Visibility: 6 or more miles (10+ km)
Ceiling: ceiling and visibility are OK
Clouds: unknown
Weather: no significant weather observed at this time

METAR text: USSS 181430Z 26004MPS CAVOK 02/M12 Q1025 R26R/120050 NOSIG RMK QFE748/0997
Conditions at: USSS (EKATERINBURG , RU) observed 1430 UTC 18 April 2019
Temperature: 2.0°C (36°F)
Dewpoint: -12.0°C (10°F) [RH = 35%]
Pressure (altimeter): 30.27 inches Hg (1025.0 mb)
Winds: from the W (260 degrees) at 9 MPH (8 knots; 4.1 m/s)
Visibility: 6 or more miles (10+ km)
Ceiling: ceiling and visibility are OK
Clouds: unknown
Weather: no significant weather observed at this time

METAR text: USSS 181400Z 27005MPS CAVOK 04/M15 Q1025 R26R/120050 NOSIG RMK QFE748/0997
Conditions at: USSS (EKATERINBURG , RU) observed 1400 UTC 18 April 2019
Temperature: 4.0°C (39°F)
Dewpoint: -15.0°C ( 5°F) [RH = 23%]
Pressure (altimeter): 30.27 inches Hg (1025.0 mb)
Winds: from the W (270 degrees) at 12 MPH (10 knots; 5.1 m/s)
Visibility: 6 or more miles (10+ km)
Ceiling: ceiling and visibility are OK
Clouds: unknown
Weather: no significant weather observed at this time

METAR text: USSS 181330Z 28005MPS 250V310 CAVOK 04/M15 Q1025 R26R/120050 NOSIG RMK QFE748/0998
Conditions at: USSS (EKATERINBURG , RU) observed 1330 UTC 18 April 2019
Temperature: 4.0°C (39°F)
Dewpoint: -15.0°C ( 5°F) [RH = 23%]
Pressure (altimeter): 30.27 inches Hg (1025.0 mb)
Winds: from the W (280 degrees) at 12 MPH (10 knots; 5.1 m/s)
Visibility: 6 or more miles (10+ km)
Ceiling: ceiling and visibility are OK
Clouds: unknown
Weather: no significant weather observed at this time

Forecast for: USSS (EKATERINBURG , RU)
Text: TAF USSS 192251Z 2000/2024 29003G08MPS 3100 BR BKN020
Forecast period: 0000 to 0200 UTC 20 April 2019
Forecast type: FROM: standard forecast or significant change
Winds: from the WNW (290 degrees) at 7 MPH (6 knots; 3.1 m/s)
gusting to 18 MPH (16 knots; 8.2 m/s)
Visibility: 1.93 miles (3.11 km)
Ceiling: 2000 feet AGL
Clouds: broken clouds at 2000 feet AGL
Weather: BR  (mist)
Text: BECMG 2002/2004 32003G11MPS 9999 NSW
Forecast period: 0200 UTC 20 April 2019 to 0000 UTC 21 April 2019
Forecast type: BECOMING: Conditions expected to become as follows by 0400 UTC 20 April 2019
Winds: from the NW (320 degrees) at 7 MPH (6 knots; 3.1 m/s)
gusting to 24 MPH (21 knots; 10.8 m/s)
Visibility: 6 or more miles 10+ km)
Ceiling: 2000 feet AGL
Clouds: broken clouds at 2000 feet AGL
Weather: NSW  (no significant weather)